sensor_id;sensor_type;location;lat;lon;timestamp;temperature;humidity
4356;DHT22;64374;51.482;7.408;2023-02-01T00:01:35;7.60;99.90
4356;DHT22;64374;51.482;7.408;2023-02-01T00:04:04;7.60;99.90
4356;DHT22;64374;51.482;7.408;2023-02-01T00:06:32;7.70;99.90
4356;DHT22;64374;51.482;7.408;2023-02-01T00:09:02;7.70;99.90
4356;DHT22;64374;51.482;7.408;2023-02-01T00:11:32;7.70;99.90
4356;DHT22;64374;51.482;7.408;2023-02-01T00:14:01;7.70;99.90
4356;DHT22;64374;51.482;7.408;2023-02-01T00:16:30;7.80;99.90
4356;DHT22;64374;51.482;7.408;2023-02-01T00:19:01;7.50;99.90
4356;DHT22;64374;51.482;7.408;2023-02-01T00:21:31;7.50;99.90
4356;DHT22;64374;51.482;7.408;2023-02-01T00:23:59;7.60;99.90
4356;DHT22;64374;51.482;7.408;2023-02-01T00:26:31;7.60;99.90
4356;DHT22;64374;51.482;7.408;2023-02-01T00:29:03;7.40;99.90
4356;DHT22;64374;51.482;7.408;2023-02-01T00:31:33;7.30;99.90
4356;DHT22;64374;51.482;7.408;2023-02-01T00:34:01;7.40;99.90
4356;DHT22;64374;51.482;7.408;2023-02-01T00:36:29;7.40;99.90
4356;DHT22;64374;51.482;7.408;2023-02-01T00:38:59;7.50;99.90
4356;DHT22;64374;51.482;7.408;2023-02-01T00:41:28;7.40;99.90
4356;DHT22;64374;51.482;7.408;2023-02-01T00:43:56;7.40;99.90
4356;DHT22;64374;51.482;7.408;2023-02-01T00:46:27;7.60;99.90
4356;DHT22;64374;51.482;7.408;2023-02-01T00:48:56;7.70;99.90
4356;DHT22;64374;51.482;7.408;2023-02-01T00:51:27;7.60;99.90
4356;DHT22;64374;51.482;7.408;2023-02-01T00:53:56;7.60;99.90
4356;DHT22;64374;51.482;7.408;2023-02-01T00:56:24;7.70;99.90
4356;DHT22;64374;51.482;7.408;2023-02-01T00:58:55;7.70;99.90
4356;DHT22;64374;51.482;7.408;2023-02-01T01:01:25;7.80;99.90
4356;DHT22;64374;51.482;7.408;2023-02-01T01:03:58;7.80;99.90
4356;DHT22;64374;51.482;7.408;2023-02-01T01:06:28;7.70;99.90
4356;DHT22;64374;51.482;7.408;2023-02-01T01:08:59;7.60;99.90
4356;DHT22;64374;51.482;7.408;2023-02-01T01:11:30;7.60;99.90
4356;DHT22;64374;51.482;7.408;2023-02-01T01:14:00;7.50;99.90
4356;DHT22;64374;51.482;7.408;2023-02-01T01:16:31;7.40;99.90
4356;DHT22;64374;51.482;7.408;2023-02-01T01:19:01;7.40;99.90
4356;DHT22;64374;51.482;7.408;2023-02-01T01:21:31;7.70;99.90
4356;DHT22;64374;51.482;7.408;2023-02-01T01:24:00;7.70;99.90
4356;DHT22;64374;51.482;7.408;2023-02-01T01:26:30;7.60;99.90
4356;DHT22;64374;51.482;7.408;2023-02-01T01:28:59;7.50;99.90
4356;DHT22;64374;51.482;7.408;2023-02-01T01:31:28;7.50;99.90
4356;DHT22;64374;51.482;7.408;2023-02-01T01:33:58;7.30;99.90
4356;DHT22;64374;51.482;7.408;2023-02-01T01:36:29;7.40;99.90
4356;DHT22;64374;51.482;7.408;2023-02-01T01:38:58;7.40;99.90
4356;DHT22;64374;51.482;7.408;2023-02-01T01:41:30;7.50;99.90
4356;DHT22;64374;51.482;7.408;2023-02-01T01:44:57;7.50;99.90
4356;DHT22;64374;51.482;7.408;2023-02-01T01:47:31;7.60;99.90
4356;DHT22;64374;51.482;7.408;2023-02-01T01:50:02;7.40;99.90
4356;DHT22;64374;51.482;7.408;2023-02-01T01:52:33;7.50;99.90
4356;DHT22;64374;51.482;7.408;2023-02-01T01:55:04;7.60;99.90
4356;DHT22;64374;51.482;7.408;2023-02-01T01:57:35;7.50;99.90
4356;DHT22;64374;51.482;7.408;2023-02-01T02:00:08;7.40;99.90
4356;DHT22;64374;51.482;7.408;2023-02-01T02:02:40;7.40;99.90
4356;DHT22;64374;51.482;7.408;2023-02-01T02:05:10;7.50;99.90
4356;DHT22;64374;51.482;7.408;2023-02-01T02:07:43;7.50;99.90
4356;DHT22;64374;51.482;7.408;2023-02-01T02:10:14;7.60;99.90
4356;DHT22;64374;51.482;7.408;2023-02-01T02:12:45;7.30;99.90
4356;DHT22;64374;51.482;7.408;2023-02-01T02:15:17;7.30;99.90
4356;DHT22;64374;51.482;7.408;2023-02-01T02:17:54;7.30;99.90
4356;DHT22;64374;51.482;7.408;2023-02-01T02:20:44;7.30;99.90
4356;DHT22;64374;51.482;7.408;2023-02-01T02:24:00;7.30;99.90
4356;DHT22;64374;51.482;7.408;2023-02-01T02:26:51;7.30;99.90
4356;DHT22;64374;51.482;7.408;2023-02-01T02:29:54;7.20;99.90
4356;DHT22;64374;51.482;7.408;2023-02-01T02:32:57;7.30;99.90
4356;DHT22;64374;51.482;7.408;2023-02-01T02:35:40;7.40;99.90
4356;DHT22;64374;51.482;7.408;2023-02-01T02:38:17;7.40;99.90
4356;DHT22;64374;51.482;7.408;2023-02-01T02:41:08;7.50;99.90
4356;DHT22;64374;51.482;7.408;2023-02-01T02:43:45;7.40;99.90
4356;DHT22;64374;51.482;7.408;2023-02-01T02:46:38;7.40;99.90
4356;DHT22;64374;51.482;7.408;2023-02-01T02:49:34;7.20;99.90
4356;DHT22;64374;51.482;7.408;2023-02-01T02:52:10;7.20;99.90
4356;DHT22;64374;51.482;7.408;2023-02-01T02:55:01;7.40;99.90
4356;DHT22;64374;51.482;7.408;2023-02-01T02:57:34;7.50;99.90
4356;DHT22;64374;51.482;7.408;2023-02-01T03:00:27;7.30;99.90
4356;DHT22;64374;51.482;7.408;2023-02-01T03:03:14;7.30;99.90
4356;DHT22;64374;51.482;7.408;2023-02-01T03:06:00;7.20;99.90
4356;DHT22;64374;51.482;7.408;2023-02-01T03:08:31;7.30;99.90
4356;DHT22;64374;51.482;7.408;2023-02-01T03:11:02;7.20;99.90
4356;DHT22;64374;51.482;7.408;2023-02-01T03:13:36;7.10;99.90
4356;DHT22;64374;51.482;7.408;2023-02-01T03:16:10;7.00;99.90
4356;DHT22;64374;51.482;7.408;2023-02-01T03:18:47;7.10;99.90
4356;DHT22;64374;51.482;7.408;2023-02-01T03:21:21;7.10;99.90
4356;DHT22;64374;51.482;7.408;2023-02-01T03:23:58;7.10;99.90
4356;DHT22;64374;51.482;7.408;2023-02-01T03:26:30;6.90;99.90
4356;DHT22;64374;51.482;7.408;2023-02-01T03:29:05;6.80;99.90
4356;DHT22;64374;51.482;7.408;2023-02-01T03:31:36;6.80;99.90
4356;DHT22;64374;51.482;7.408;2023-02-01T03:34:04;6.80;99.90
4356;DHT22;64374;51.482;7.408;2023-02-01T03:36:38;7.00;99.90
4356;DHT22;64374;51.482;7.408;2023-02-01T03:39:16;6.90;99.90
4356;DHT22;64374;51.482;7.408;2023-02-01T03:41:51;6.90;99.90
4356;DHT22;64374;51.482;7.408;2023-02-01T03:44:23;7.00;99.90
4356;DHT22;64374;51.482;7.408;2023-02-01T03:46:56;7.10;99.90
4356;DHT22;64374;51.482;7.408;2023-02-01T03:49:29;7.00;99.90
4356;DHT22;64374;51.482;7.408;2023-02-01T03:51:59;7.10;99.90
4356;DHT22;64374;51.482;7.408;2023-02-01T03:54:30;6.80;99.90
4356;DHT22;64374;51.482;7.408;2023-02-01T03:57:05;6.80;99.90
4356;DHT22;64374;51.482;7.408;2023-02-01T03:59:39;6.90;99.90
4356;DHT22;64374;51.482;7.408;2023-02-01T04:02:07;7.00;99.90
4356;DHT22;64374;51.482;7.408;2023-02-01T04:04:37;7.20;99.90
4356;DHT22;64374;51.482;7.408;2023-02-01T04:07:06;7.30;99.90
4356;DHT22;64374;51.482;7.408;2023-02-01T04:09:35;7.30;99.90
4356;DHT22;64374;51.482;7.408;2023-02-01T04:12:06;7.10;99.90
4356;DHT22;64374;51.482;7.408;2023-02-01T04:14:35;6.90;99.90
4356;DHT22;64374;51.482;7.408;2023-02-01T04:17:03;7.10;99.90
4356;DHT22;64374;51.482;7.408;2023-02-01T04:19:31;7.00;99.90
4356;DHT22;64374;51.482;7.408;2023-02-01T04:22:00;6.90;99.90
4356;DHT22;64374;51.482;7.408;2023-02-01T04:24:28;7.00;99.90
4356;DHT22;64374;51.482;7.408;2023-02-01T04:26:58;7.00;99.90
4356;DHT22;64374;51.482;7.408;2023-02-01T04:29:26;7.00;99.90
4356;DHT22;64374;51.482;7.408;2023-02-01T04:31:55;6.90;99.90
4356;DHT22;64374;51.482;7.408;2023-02-01T04:34:23;6.90;99.90
4356;DHT22;64374;51.482;7.408;2023-02-01T04:36:52;7.00;99.90
4356;DHT22;64374;51.482;7.408;2023-02-01T04:39:20;6.90;99.90
4356;DHT22;64374;51.482;7.408;2023-02-01T04:41:48;7.00;99.90
4356;DHT22;64374;51.482;7.408;2023-02-01T04:44:19;7.10;99.90
4356;DHT22;64374;51.482;7.408;2023-02-01T04:46:48;7.10;99.90
4356;DHT22;64374;51.482;7.408;2023-02-01T04:49:16;7.10;99.90
4356;DHT22;64374;51.482;7.408;2023-02-01T04:51:45;7.10;99.90
4356;DHT22;64374;51.482;7.408;2023-02-01T04:54:14;7.00;99.90
4356;DHT22;64374;51.482;7.408;2023-02-01T04:56:42;7.10;99.90
4356;DHT22;64374;51.482;7.408;2023-02-01T04:59:12;7.00;99.90
4356;DHT22;64374;51.482;7.408;2023-02-01T05:01:45;6.80;99.90
4356;DHT22;64374;51.482;7.408;2023-02-01T05:04:14;6.90;99.90
4356;DHT22;64374;51.482;7.408;2023-02-01T05:06:46;6.90;99.90
4356;DHT22;64374;51.482;7.408;2023-02-01T05:09:15;7.10;99.90
4356;DHT22;64374;51.482;7.408;2023-02-01T05:11:43;7.10;99.90
4356;DHT22;64374;51.482;7.408;2023-02-01T05:14:29;7.00;99.90
4356;DHT22;64374;51.482;7.408;2023-02-01T05:16:59;6.90;99.90
4356;DHT22;64374;51.482;7.408;2023-02-01T05:19:27;6.80;99.90
4356;DHT22;64374;51.482;7.408;2023-02-01T05:21:55;6.80;99.90
4356;DHT22;64374;51.482;7.408;2023-02-01T05:24:25;6.80;99.90
4356;DHT22;64374;51.482;7.408;2023-02-01T05:26:54;6.80;99.90
4356;DHT22;64374;51.482;7.408;2023-02-01T05:29:24;6.80;99.90
4356;DHT22;64374;51.482;7.408;2023-02-01T05:31:52;6.80;99.90
4356;DHT22;64374;51.482;7.408;2023-02-01T05:34:22;6.90;99.90
4356;DHT22;64374;51.482;7.408;2023-02-01T05:36:51;6.90;99.90
4356;DHT22;64374;51.482;7.408;2023-02-01T05:39:19;7.00;99.90
4356;DHT22;64374;51.482;7.408;2023-02-01T05:41:48;6.80;99.90
4356;DHT22;64374;51.482;7.408;2023-02-01T05:44:17;6.70;99.90
4356;DHT22;64374;51.482;7.408;2023-02-01T05:46:45;6.80;99.90
4356;DHT22;64374;51.482;7.408;2023-02-01T05:49:16;7.00;99.90
4356;DHT22;64374;51.482;7.408;2023-02-01T05:51:48;7.00;99.90
4356;DHT22;64374;51.482;7.408;2023-02-01T05:54:17;7.00;99.90
4356;DHT22;64374;51.482;7.408;2023-02-01T05:56:45;6.70;99.90
4356;DHT22;64374;51.482;7.408;2023-02-01T05:59:14;6.90;99.90
4356;DHT22;64374;51.482;7.408;2023-02-01T06:01:42;6.80;99.90
4356;DHT22;64374;51.482;7.408;2023-02-01T06:04:10;6.90;99.90
4356;DHT22;64374;51.482;7.408;2023-02-01T06:06:40;6.90;99.90
4356;DHT22;64374;51.482;7.408;2023-02-01T06:09:10;6.80;99.90
4356;DHT22;64374;51.482;7.408;2023-02-01T06:11:39;6.60;99.90
4356;DHT22;64374;51.482;7.408;2023-02-01T06:14:08;6.50;99.90
4356;DHT22;64374;51.482;7.408;2023-02-01T06:16:37;6.60;99.90
4356;DHT22;64374;51.482;7.408;2023-02-01T06:19:05;6.70;99.90
4356;DHT22;64374;51.482;7.408;2023-02-01T06:21:34;6.80;99.90
4356;DHT22;64374;51.482;7.408;2023-02-01T06:24:03;6.70;99.90
4356;DHT22;64374;51.482;7.408;2023-02-01T06:26:34;6.60;99.90
4356;DHT22;64374;51.482;7.408;2023-02-01T06:29:03;6.70;99.90
4356;DHT22;64374;51.482;7.408;2023-02-01T06:31:31;6.80;99.90
4356;DHT22;64374;51.482;7.408;2023-02-01T06:34:00;6.60;99.90
4356;DHT22;64374;51.482;7.408;2023-02-01T06:36:30;6.80;99.90
4356;DHT22;64374;51.482;7.408;2023-02-01T06:38:59;6.80;99.90
4356;DHT22;64374;51.482;7.408;2023-02-01T06:41:27;6.90;99.90
4356;DHT22;64374;51.482;7.408;2023-02-01T06:43:57;7.00;99.90
4356;DHT22;64374;51.482;7.408;2023-02-01T06:46:25;6.90;99.90
4356;DHT22;64374;51.482;7.408;2023-02-01T06:48:56;6.70;99.90
4356;DHT22;64374;51.482;7.408;2023-02-01T06:51:26;6.80;99.90
4356;DHT22;64374;51.482;7.408;2023-02-01T06:53:55;6.90;99.90
4356;DHT22;64374;51.482;7.408;2023-02-01T06:56:24;7.00;99.90
4356;DHT22;64374;51.482;7.408;2023-02-01T06:58:52;6.80;99.90
4356;DHT22;64374;51.482;7.408;2023-02-01T07:01:22;6.90;99.90
4356;DHT22;64374;51.482;7.408;2023-02-01T07:03:50;7.00;99.90
4356;DHT22;64374;51.482;7.408;2023-02-01T07:06:18;7.10;99.90
4356;DHT22;64374;51.482;7.408;2023-02-01T07:08:46;6.80;99.90
4356;DHT22;64374;51.482;7.408;2023-02-01T07:11:16;6.80;99.90
4356;DHT22;64374;51.482;7.408;2023-02-01T07:13:45;6.90;99.90
4356;DHT22;64374;51.482;7.408;2023-02-01T07:16:15;6.80;99.90
4356;DHT22;64374;51.482;7.408;2023-02-01T07:18:45;6.80;99.90
4356;DHT22;64374;51.482;7.408;2023-02-01T07:21:14;6.90;99.90
4356;DHT22;64374;51.482;7.408;2023-02-01T07:23:42;7.00;99.90
4356;DHT22;64374;51.482;7.408;2023-02-01T07:26:12;7.10;99.90
4356;DHT22;64374;51.482;7.408;2023-02-01T07:28:44;7.00;99.90
4356;DHT22;64374;51.482;7.408;2023-02-01T07:31:15;7.00;99.90
4356;DHT22;64374;51.482;7.408;2023-02-01T07:33:48;7.00;99.90
4356;DHT22;64374;51.482;7.408;2023-02-01T07:36:19;6.90;99.90
4356;DHT22;64374;51.482;7.408;2023-02-01T07:38:47;6.90;99.90
4356;DHT22;64374;51.482;7.408;2023-02-01T07:41:18;7.20;99.90
4356;DHT22;64374;51.482;7.408;2023-02-01T07:43:47;7.20;99.90
4356;DHT22;64374;51.482;7.408;2023-02-01T07:46:17;7.20;99.90
4356;DHT22;64374;51.482;7.408;2023-02-01T07:48:47;7.30;99.90
4356;DHT22;64374;51.482;7.408;2023-02-01T07:51:16;7.30;99.90
4356;DHT22;64374;51.482;7.408;2023-02-01T07:53:45;7.20;99.90
4356;DHT22;64374;51.482;7.408;2023-02-01T07:56:14;7.30;99.90
4356;DHT22;64374;51.482;7.408;2023-02-01T07:58:47;7.20;99.90
4356;DHT22;64374;51.482;7.408;2023-02-01T08:01:17;7.00;99.90
4356;DHT22;64374;51.482;7.408;2023-02-01T08:03:50;7.10;99.90
4356;DHT22;64374;51.482;7.408;2023-02-01T08:06:19;7.10;99.90
4356;DHT22;64374;51.482;7.408;2023-02-01T08:08:48;7.20;99.90
4356;DHT22;64374;51.482;7.408;2023-02-01T08:11:18;7.30;99.90
4356;DHT22;64374;51.482;7.408;2023-02-01T08:13:47;7.10;99.90
4356;DHT22;64374;51.482;7.408;2023-02-01T08:16:17;7.00;99.90
4356;DHT22;64374;51.482;7.408;2023-02-01T08:18:48;7.20;99.90
4356;DHT22;64374;51.482;7.408;2023-02-01T08:21:18;7.00;99.90
4356;DHT22;64374;51.482;7.408;2023-02-01T08:23:47;7.00;99.90
4356;DHT22;64374;51.482;7.408;2023-02-01T08:26:19;7.20;99.90
4356;DHT22;64374;51.482;7.408;2023-02-01T08:28:50;7.10;99.90
4356;DHT22;64374;51.482;7.408;2023-02-01T08:31:21;7.20;99.90
4356;DHT22;64374;51.482;7.408;2023-02-01T08:33:53;7.40;99.90
4356;DHT22;64374;51.482;7.408;2023-02-01T08:36:23;7.20;99.90
4356;DHT22;64374;51.482;7.408;2023-02-01T08:38:54;7.30;99.90
4356;DHT22;64374;51.482;7.408;2023-02-01T08:41:24;7.40;99.90
4356;DHT22;64374;51.482;7.408;2023-02-01T08:43:53;7.30;99.90
4356;DHT22;64374;51.482;7.408;2023-02-01T08:46:22;7.30;99.90
4356;DHT22;64374;51.482;7.408;2023-02-01T08:48:53;7.50;99.90
4356;DHT22;64374;51.482;7.408;2023-02-01T08:51:22;7.20;99.90
4356;DHT22;64374;51.482;7.408;2023-02-01T08:53:51;7.10;99.90
4356;DHT22;64374;51.482;7.408;2023-02-01T08:56:19;7.10;99.90
4356;DHT22;64374;51.482;7.408;2023-02-01T08:58:49;7.10;99.90
4356;DHT22;64374;51.482;7.408;2023-02-01T09:01:17;7.10;99.90
4356;DHT22;64374;51.482;7.408;2023-02-01T09:03:46;7.00;99.90
4356;DHT22;64374;51.482;7.408;2023-02-01T09:06:15;7.10;99.90
4356;DHT22;64374;51.482;7.408;2023-02-01T09:08:44;6.90;99.90
4356;DHT22;64374;51.482;7.408;2023-02-01T09:11:14;7.10;99.90
4356;DHT22;64374;51.482;7.408;2023-02-01T09:13:43;7.20;99.90
4356;DHT22;64374;51.482;7.408;2023-02-01T09:16:12;6.90;99.90
4356;DHT22;64374;51.482;7.408;2023-02-01T09:18:40;7.10;99.90
4356;DHT22;64374;51.482;7.408;2023-02-01T09:21:29;7.10;99.90
4356;DHT22;64374;51.482;7.408;2023-02-01T09:23:58;7.10;99.90
4356;DHT22;64374;51.482;7.408;2023-02-01T09:26:26;7.20;99.90
4356;DHT22;64374;51.482;7.408;2023-02-01T09:28:59;7.10;99.90
4356;DHT22;64374;51.482;7.408;2023-02-01T09:31:28;7.10;99.90
4356;DHT22;64374;51.482;7.408;2023-02-01T09:33:57;7.20;99.90
4356;DHT22;64374;51.482;7.408;2023-02-01T09:36:25;7.20;99.90
4356;DHT22;64374;51.482;7.408;2023-02-01T09:38:59;7.10;99.90
4356;DHT22;64374;51.482;7.408;2023-02-01T09:41:35;7.30;99.90
4356;DHT22;64374;51.482;7.408;2023-02-01T09:44:17;7.30;99.90
4356;DHT22;64374;51.482;7.408;2023-02-01T09:46:46;7.20;99.90
4356;DHT22;64374;51.482;7.408;2023-02-01T09:49:18;7.30;99.90
4356;DHT22;64374;51.482;7.408;2023-02-01T09:51:50;7.30;99.90
4356;DHT22;64374;51.482;7.408;2023-02-01T09:54:24;7.20;99.90
4356;DHT22;64374;51.482;7.408;2023-02-01T09:57:00;7.30;99.90
4356;DHT22;64374;51.482;7.408;2023-02-01T09:59:34;7.30;99.90
4356;DHT22;64374;51.482;7.408;2023-02-01T10:02:12;7.40;99.90
4356;DHT22;64374;51.482;7.408;2023-02-01T10:04:44;7.20;99.90
4356;DHT22;64374;51.482;7.408;2023-02-01T10:07:22;7.40;99.90
4356;DHT22;64374;51.482;7.408;2023-02-01T10:10:02;7.20;99.90
4356;DHT22;64374;51.482;7.408;2023-02-01T10:12:54;7.20;99.90
4356;DHT22;64374;51.482;7.408;2023-02-01T10:15:30;7.30;99.90
4356;DHT22;64374;51.482;7.408;2023-02-01T10:18:11;7.30;99.90
4356;DHT22;64374;51.482;7.408;2023-02-01T10:20:53;7.20;99.90
4356;DHT22;64374;51.482;7.408;2023-02-01T10:23:37;7.10;99.90
4356;DHT22;64374;51.482;7.408;2023-02-01T10:26:18;7.20;99.90
4356;DHT22;64374;51.482;7.408;2023-02-01T10:28:50;7.10;99.90
4356;DHT22;64374;51.482;7.408;2023-02-01T10:31:21;7.10;99.90
4356;DHT22;64374;51.482;7.408;2023-02-01T10:33:56;7.10;99.90
4356;DHT22;64374;51.482;7.408;2023-02-01T10:36:28;7.30;99.90
4356;DHT22;64374;51.482;7.408;2023-02-01T10:38:58;7.20;99.90
4356;DHT22;64374;51.482;7.408;2023-02-01T10:41:32;7.30;99.90
4356;DHT22;64374;51.482;7.408;2023-02-01T10:44:04;7.10;99.90
4356;DHT22;64374;51.482;7.408;2023-02-01T10:46:34;7.30;99.90
4356;DHT22;64374;51.482;7.408;2023-02-01T10:49:04;7.30;99.90
4356;DHT22;64374;51.482;7.408;2023-02-01T10:51:42;7.20;99.90
4356;DHT22;64374;51.482;7.408;2023-02-01T10:54:16;7.40;99.90
4356;DHT22;64374;51.482;7.408;2023-02-01T10:56:47;7.40;99.90
4356;DHT22;64374;51.482;7.408;2023-02-01T10:59:17;7.40;99.90
4356;DHT22;64374;51.482;7.408;2023-02-01T11:01:48;7.20;99.90
4356;DHT22;64374;51.482;7.408;2023-02-01T11:04:19;7.40;99.90
4356;DHT22;64374;51.482;7.408;2023-02-01T11:06:49;7.50;99.90
4356;DHT22;64374;51.482;7.408;2023-02-01T11:09:21;7.50;99.90
4356;DHT22;64374;51.482;7.408;2023-02-01T11:11:57;7.70;99.90
4356;DHT22;64374;51.482;7.408;2023-02-01T11:14:35;7.50;99.90
4356;DHT22;64374;51.482;7.408;2023-02-01T11:17:26;7.40;99.90
4356;DHT22;64374;51.482;7.408;2023-02-01T11:19:58;7.30;99.90
4356;DHT22;64374;51.482;7.408;2023-02-01T11:22:27;7.30;99.90
4356;DHT22;64374;51.482;7.408;2023-02-01T11:25:13;7.40;99.90
4356;DHT22;64374;51.482;7.408;2023-02-01T11:27:44;7.50;99.90
4356;DHT22;64374;51.482;7.408;2023-02-01T11:30:28;7.40;99.90
4356;DHT22;64374;51.482;7.408;2023-02-01T11:33:00;7.40;99.90
4356;DHT22;64374;51.482;7.408;2023-02-01T11:35:35;7.40;99.90
4356;DHT22;64374;51.482;7.408;2023-02-01T11:38:15;7.30;99.90
4356;DHT22;64374;51.482;7.408;2023-02-01T11:40:48;7.40;99.90
4356;DHT22;64374;51.482;7.408;2023-02-01T11:43:23;7.40;99.90
4356;DHT22;64374;51.482;7.408;2023-02-01T11:45:56;7.40;99.90
4356;DHT22;64374;51.482;7.408;2023-02-01T11:48:27;7.40;99.90
4356;DHT22;64374;51.482;7.408;2023-02-01T11:51:13;7.40;99.90
4356;DHT22;64374;51.482;7.408;2023-02-01T11:54:00;7.50;99.90
4356;DHT22;64374;51.482;7.408;2023-02-01T11:56:33;7.60;99.90
4356;DHT22;64374;51.482;7.408;2023-02-01T11:59:24;7.40;99.90
4356;DHT22;64374;51.482;7.408;2023-02-01T12:02:17;7.60;99.90
4356;DHT22;64374;51.482;7.408;2023-02-01T12:05:08;7.80;99.90
4356;DHT22;64374;51.482;7.408;2023-02-01T12:07:56;8.00;99.90
4356;DHT22;64374;51.482;7.408;2023-02-01T12:10:36;7.70;99.90
4356;DHT22;64374;51.482;7.408;2023-02-01T12:13:17;7.40;99.90
4356;DHT22;64374;51.482;7.408;2023-02-01T12:16:00;7.50;99.90
4356;DHT22;64374;51.482;7.408;2023-02-01T12:21:47;7.10;99.90
4356;DHT22;64374;51.482;7.408;2023-02-01T12:24:39;6.90;99.90
4356;DHT22;64374;51.482;7.408;2023-02-01T12:27:46;7.00;99.90
4356;DHT22;64374;51.482;7.408;2023-02-01T12:33:18;7.30;99.90
4356;DHT22;64374;51.482;7.408;2023-02-01T12:35:57;7.10;99.90
4356;DHT22;64374;51.482;7.408;2023-02-01T12:39:01;7.10;99.90
4356;DHT22;64374;51.482;7.408;2023-02-01T12:41:49;7.10;99.90
4356;DHT22;64374;51.482;7.408;2023-02-01T12:44:32;7.20;99.90
4356;DHT22;64374;51.482;7.408;2023-02-01T12:47:06;7.30;99.90
4356;DHT22;64374;51.482;7.408;2023-02-01T12:49:44;7.40;99.90
4356;DHT22;64374;51.482;7.408;2023-02-01T12:52:18;7.50;99.90
4356;DHT22;64374;51.482;7.408;2023-02-01T12:54:53;7.60;99.90
4356;DHT22;64374;51.482;7.408;2023-02-01T12:57:26;7.60;99.90
4356;DHT22;64374;51.482;7.408;2023-02-01T13:00:02;7.50;99.90
4356;DHT22;64374;51.482;7.408;2023-02-01T13:02:39;7.60;99.90
4356;DHT22;64374;51.482;7.408;2023-02-01T13:05:16;7.60;99.90
4356;DHT22;64374;51.482;7.408;2023-02-01T13:07:50;7.50;99.90
4356;DHT22;64374;51.482;7.408;2023-02-01T13:10:26;7.50;99.90
4356;DHT22;64374;51.482;7.408;2023-02-01T13:13:02;7.60;99.90
4356;DHT22;64374;51.482;7.408;2023-02-01T13:15:38;7.50;99.90
4356;DHT22;64374;51.482;7.408;2023-02-01T13:18:13;7.50;99.90
4356;DHT22;64374;51.482;7.408;2023-02-01T13:20:49;7.40;99.90
4356;DHT22;64374;51.482;7.408;2023-02-01T13:23:24;7.70;99.90
4356;DHT22;64374;51.482;7.408;2023-02-01T13:25:54;7.60;99.90
4356;DHT22;64374;51.482;7.408;2023-02-01T13:28:26;7.60;99.90
4356;DHT22;64374;51.482;7.408;2023-02-01T13:31:23;7.60;99.90
4356;DHT22;64374;51.482;7.408;2023-02-01T13:34:24;7.60;99.90
4356;DHT22;64374;51.482;7.408;2023-02-01T13:37:08;7.80;99.90
4356;DHT22;64374;51.482;7.408;2023-02-01T13:40:10;7.80;99.90
4356;DHT22;64374;51.482;7.408;2023-02-01T13:42:48;7.60;99.90
4356;DHT22;64374;51.482;7.408;2023-02-01T13:45:20;7.50;99.90
4356;DHT22;64374;51.482;7.408;2023-02-01T13:47:55;7.40;99.90
4356;DHT22;64374;51.482;7.408;2023-02-01T13:50:27;7.50;99.90
4356;DHT22;64374;51.482;7.408;2023-02-01T13:53:03;7.40;99.90
4356;DHT22;64374;51.482;7.408;2023-02-01T13:55:35;7.60;99.90
4356;DHT22;64374;51.482;7.408;2023-02-01T13:58:15;7.70;99.90
4356;DHT22;64374;51.482;7.408;2023-02-01T14:00:48;7.70;99.90
4356;DHT22;64374;51.482;7.408;2023-02-01T14:03:20;7.70;99.90
4356;DHT22;64374;51.482;7.408;2023-02-01T14:11:53;7.90;99.90
4356;DHT22;64374;51.482;7.408;2023-02-01T14:14:43;7.90;99.90
4356;DHT22;64374;51.482;7.408;2023-02-01T14:17:36;7.80;99.90
4356;DHT22;64374;51.482;7.408;2023-02-01T14:23:26;7.80;99.90
4356;DHT22;64374;51.482;7.408;2023-02-01T14:26:03;7.90;99.90
4356;DHT22;64374;51.482;7.408;2023-02-01T14:28:39;7.80;99.90
4356;DHT22;64374;51.482;7.408;2023-02-01T14:31:39;8.00;99.90
4356;DHT22;64374;51.482;7.408;2023-02-01T14:34:16;8.00;99.90
4356;DHT22;64374;51.482;7.408;2023-02-01T14:36:50;7.90;99.90
4356;DHT22;64374;51.482;7.408;2023-02-01T14:39:35;8.00;99.90
4356;DHT22;64374;51.482;7.408;2023-02-01T14:42:17;8.00;99.90
4356;DHT22;64374;51.482;7.408;2023-02-01T14:44:48;7.90;99.90
4356;DHT22;64374;51.482;7.408;2023-02-01T14:47:33;7.90;99.90
4356;DHT22;64374;51.482;7.408;2023-02-01T14:50:31;7.90;99.90
4356;DHT22;64374;51.482;7.408;2023-02-01T14:53:18;8.00;99.90
4356;DHT22;64374;51.482;7.408;2023-02-01T14:55:53;7.90;99.90
4356;DHT22;64374;51.482;7.408;2023-02-01T14:58:34;8.00;99.90
4356;DHT22;64374;51.482;7.408;2023-02-01T15:01:17;8.10;99.90
4356;DHT22;64374;51.482;7.408;2023-02-01T15:03:57;8.20;99.90
4356;DHT22;64374;51.482;7.408;2023-02-01T15:06:33;8.20;99.90
4356;DHT22;64374;51.482;7.408;2023-02-01T15:09:09;8.20;99.90
4356;DHT22;64374;51.482;7.408;2023-02-01T15:11:56;8.10;99.90
4356;DHT22;64374;51.482;7.408;2023-02-01T15:14:26;8.20;99.90
4356;DHT22;64374;51.482;7.408;2023-02-01T15:16:56;8.10;99.90
4356;DHT22;64374;51.482;7.408;2023-02-01T15:19:26;8.10;99.90
4356;DHT22;64374;51.482;7.408;2023-02-01T15:21:58;8.10;99.90
4356;DHT22;64374;51.482;7.408;2023-02-01T15:24:28;8.20;99.90
4356;DHT22;64374;51.482;7.408;2023-02-01T15:27:03;8.10;99.90
4356;DHT22;64374;51.482;7.408;2023-02-01T15:29:32;8.20;99.90
4356;DHT22;64374;51.482;7.408;2023-02-01T15:32:02;8.30;99.90
4356;DHT22;64374;51.482;7.408;2023-02-01T15:34:48;8.20;99.90
4356;DHT22;64374;51.482;7.408;2023-02-01T15:37:16;8.30;99.90
4356;DHT22;64374;51.482;7.408;2023-02-01T15:40:18;8.10;99.90
4356;DHT22;64374;51.482;7.408;2023-02-01T15:42:51;8.30;99.90
4356;DHT22;64374;51.482;7.408;2023-02-01T15:45:25;8.00;99.90
4356;DHT22;64374;51.482;7.408;2023-02-01T15:48:00;8.20;99.90
4356;DHT22;64374;51.482;7.408;2023-02-01T15:50:30;8.30;99.90
4356;DHT22;64374;51.482;7.408;2023-02-01T15:52:59;8.30;99.90
4356;DHT22;64374;51.482;7.408;2023-02-01T15:55:35;8.40;99.90
4356;DHT22;64374;51.482;7.408;2023-02-01T15:58:17;8.50;99.90
4356;DHT22;64374;51.482;7.408;2023-02-01T16:00:48;8.50;99.90
4356;DHT22;64374;51.482;7.408;2023-02-01T16:03:34;8.40;99.90
4356;DHT22;64374;51.482;7.408;2023-02-01T16:06:06;8.40;99.90
4356;DHT22;64374;51.482;7.408;2023-02-01T16:08:35;8.30;99.90
4356;DHT22;64374;51.482;7.408;2023-02-01T16:11:25;8.30;99.90
4356;DHT22;64374;51.482;7.408;2023-02-01T16:13:54;8.30;99.90
4356;DHT22;64374;51.482;7.408;2023-02-01T16:16:23;8.30;99.90
4356;DHT22;64374;51.482;7.408;2023-02-01T16:18:53;8.30;99.90
4356;DHT22;64374;51.482;7.408;2023-02-01T16:21:21;8.30;99.90
4356;DHT22;64374;51.482;7.408;2023-02-01T16:23:50;8.10;99.90
4356;DHT22;64374;51.482;7.408;2023-02-01T16:26:22;8.20;99.90
4356;DHT22;64374;51.482;7.408;2023-02-01T16:28:52;8.20;99.90
4356;DHT22;64374;51.482;7.408;2023-02-01T16:31:23;8.30;99.90
4356;DHT22;64374;51.482;7.408;2023-02-01T16:33:56;8.40;99.90
4356;DHT22;64374;51.482;7.408;2023-02-01T16:36:25;8.30;99.90
4356;DHT22;64374;51.482;7.408;2023-02-01T16:38:56;8.40;99.90
4356;DHT22;64374;51.482;7.408;2023-02-01T16:41:26;8.40;99.90
4356;DHT22;64374;51.482;7.408;2023-02-01T16:43:56;8.30;99.90
4356;DHT22;64374;51.482;7.408;2023-02-01T16:46:26;8.30;99.90
4356;DHT22;64374;51.482;7.408;2023-02-01T16:48:59;8.10;99.90
4356;DHT22;64374;51.482;7.408;2023-02-01T16:51:31;8.30;99.90
4356;DHT22;64374;51.482;7.408;2023-02-01T16:54:00;8.10;99.90
4356;DHT22;64374;51.482;7.408;2023-02-01T16:56:32;8.00;99.90
4356;DHT22;64374;51.482;7.408;2023-02-01T16:59:02;8.10;99.90
4356;DHT22;64374;51.482;7.408;2023-02-01T17:01:31;8.10;99.90